createdAt,value
2023-05-10T00:00:20.693Z,3.46
2023-05-10T00:01:20.698Z,3.51
2023-05-10T00:02:20.743Z,3.54
2023-05-10T00:03:20.798Z,3.55
2023-05-10T00:04:20.818Z,3.45
2023-05-10T00:05:20.741Z,3.55
2023-05-10T00:06:20.694Z,3.54
2023-05-10T00:07:20.711Z,3.53
2023-05-10T00:08:20.697Z,3.56
2023-05-10T00:09:20.711Z,3.60
2023-05-10T00:10:20.686Z,3.57
2023-05-10T00:11:22.883Z,3.57
2023-05-10T00:12:20.724Z,3.54
2023-05-10T00:13:20.762Z,3.71
2023-05-10T00:14:20.662Z,3.53
2023-05-10T00:15:20.688Z,3.62
2023-05-10T00:16:20.752Z,3.60
2023-05-10T00:17:20.711Z,3.58
2023-05-10T00:18:20.667Z,3.64
2023-05-10T00:19:20.687Z,3.62
2023-05-10T00:20:20.684Z,3.54
2023-05-10T00:21:20.724Z,3.52
2023-05-10T00:22:20.661Z,3.58
2023-05-10T00:23:20.707Z,3.50
2023-05-10T00:24:20.698Z,3.57
2023-05-10T00:25:20.672Z,3.56
2023-05-10T00:26:20.660Z,3.60
2023-05-10T00:27:20.649Z,3.63
2023-05-10T00:28:20.714Z,3.64
2023-05-10T00:29:20.660Z,3.71
2023-05-10T00:30:20.676Z,3.64
2023-05-10T00:31:20.651Z,3.59
2023-05-10T00:32:20.819Z,3.63
2023-05-10T00:33:20.671Z,3.65
2023-05-10T00:34:20.646Z,3.62
2023-05-10T00:35:20.661Z,3.56
2023-05-10T00:36:20.677Z,3.61
2023-05-10T00:37:20.640Z,3.69
2023-05-10T00:38:20.671Z,3.64
2023-05-10T00:39:20.672Z,3.65
2023-05-10T00:40:20.689Z,3.72
2023-05-10T00:41:21.606Z,3.74
2023-05-10T00:42:20.680Z,3.71
2023-05-10T00:43:20.653Z,3.67
2023-05-10T00:44:20.666Z,3.71
2023-05-10T00:45:20.667Z,3.70
2023-05-10T00:46:20.659Z,3.72
2023-05-10T00:47:20.699Z,3.78
2023-05-10T00:48:20.650Z,3.72
2023-05-10T00:49:20.640Z,3.81
2023-05-10T00:50:20.642Z,3.82
2023-05-10T00:51:20.669Z,3.77
2023-05-10T00:52:20.691Z,3.72
2023-05-10T00:53:20.673Z,3.72
2023-05-10T00:54:20.675Z,3.83
2023-05-10T00:55:20.641Z,3.78
2023-05-10T00:56:20.655Z,3.83
2023-05-10T00:57:20.627Z,3.66
2023-05-10T00:58:20.657Z,3.73
2023-05-10T00:59:20.644Z,3.78
2023-05-10T01:00:20.630Z,3.80
2023-05-10T01:01:20.674Z,3.74
2023-05-10T01:02:20.702Z,3.80
2023-05-10T01:03:20.780Z,3.63
2023-05-10T01:04:20.696Z,3.73
2023-05-10T01:05:20.822Z,3.71
2023-05-10T01:06:20.647Z,3.77
2023-05-10T01:07:20.668Z,3.80
2023-05-10T01:08:20.694Z,3.78
2023-05-10T01:09:20.676Z,3.71
2023-05-10T01:10:20.657Z,3.80
2023-05-10T01:11:20.671Z,3.73
2023-05-10T01:12:20.701Z,3.78
2023-05-10T01:13:20.741Z,3.81
2023-05-10T01:14:20.642Z,3.87
2023-05-10T01:15:20.666Z,3.82
2023-05-10T01:16:20.709Z,3.87
2023-05-10T01:17:20.673Z,3.81
2023-05-10T01:18:20.660Z,3.72
2023-05-10T01:19:20.661Z,3.73
2023-05-10T01:20:20.666Z,3.77
2023-05-10T01:21:20.655Z,3.77
2023-05-10T01:22:20.672Z,3.81
2023-05-10T01:23:20.671Z,3.75
2023-05-10T01:24:20.684Z,3.84
2023-05-10T01:25:20.693Z,3.86
2023-05-10T01:26:20.696Z,3.85
2023-05-10T01:27:20.675Z,3.76
2023-05-10T01:28:20.664Z,3.75
2023-05-10T01:29:20.657Z,3.81
2023-05-10T01:31:20.800Z,3.74
2023-05-10T01:32:20.677Z,3.79
2023-05-10T01:33:20.703Z,3.91
2023-05-10T01:34:20.679Z,3.82
2023-05-10T01:35:20.688Z,3.77
2023-05-10T01:36:20.713Z,3.88
2023-05-10T01:37:20.681Z,3.70
2023-05-10T01:38:20.664Z,3.79
2023-05-10T01:39:20.687Z,3.77
2023-05-10T01:40:20.675Z,3.75
2023-05-10T01:41:20.702Z,3.69
2023-05-10T01:42:20.701Z,3.72
2023-05-10T01:43:20.807Z,3.72
2023-05-10T01:44:20.675Z,3.77
2023-05-10T01:45:20.732Z,3.77
2023-05-10T01:46:20.678Z,3.71
2023-05-10T01:47:20.677Z,3.81
2023-05-10T01:48:20.701Z,3.75
2023-05-10T01:49:20.664Z,3.72
2023-05-10T01:50:20.717Z,3.78
2023-05-10T01:51:20.668Z,3.82
2023-05-10T01:52:20.727Z,3.73
2023-05-10T01:53:20.694Z,3.72
2023-05-10T01:54:20.681Z,3.75
2023-05-10T01:55:20.691Z,3.71
2023-05-10T01:56:20.689Z,3.78
2023-05-10T01:57:20.690Z,3.73
2023-05-10T01:58:20.687Z,3.69
2023-05-10T01:59:20.725Z,3.77
2023-05-10T02:00:20.681Z,3.85
2023-05-10T02:01:20.773Z,3.86
2023-05-10T02:02:20.667Z,3.85
2023-05-10T02:03:20.736Z,3.81
2023-05-10T02:04:20.635Z,3.88
2023-05-10T02:05:20.648Z,3.94
2023-05-10T02:06:20.638Z,3.86
2023-05-10T02:07:20.642Z,3.84
2023-05-10T02:08:20.682Z,3.78
2023-05-10T02:09:20.663Z,3.82
2023-05-10T02:10:20.683Z,3.80
2023-05-10T02:11:20.657Z,3.71
2023-05-10T02:12:20.653Z,3.81
2023-05-10T02:13:20.751Z,3.80
2023-05-10T02:14:20.688Z,3.80
2023-05-10T02:15:20.662Z,3.88
2023-05-10T02:16:20.696Z,3.73
2023-05-10T02:17:20.636Z,3.82
2023-05-10T02:18:20.667Z,3.86
2023-05-10T02:19:20.672Z,3.76
2023-05-10T02:20:20.685Z,3.89
2023-05-10T02:21:20.649Z,3.78
2023-05-10T02:22:20.634Z,3.77
2023-05-10T02:23:20.657Z,3.81
2023-05-10T02:24:20.650Z,3.79
2023-05-10T02:25:20.653Z,3.83
2023-05-10T02:26:20.652Z,3.78
2023-05-10T02:27:20.645Z,3.85
2023-05-10T02:28:20.662Z,3.80
2023-05-10T02:29:20.740Z,3.84
2023-05-10T02:30:20.672Z,3.87
2023-05-10T02:31:20.704Z,3.84
2023-05-10T02:32:20.652Z,3.91
2023-05-10T02:33:20.653Z,3.80
2023-05-10T02:34:20.664Z,3.91
2023-05-10T02:35:20.698Z,3.81
2023-05-10T02:36:20.684Z,3.81
2023-05-10T02:37:20.681Z,3.87
2023-05-10T02:38:20.682Z,3.92
2023-05-10T02:39:20.670Z,3.89
2023-05-10T02:40:20.633Z,3.93
2023-05-10T02:41:20.640Z,3.86
2023-05-10T02:42:20.674Z,3.85
2023-05-10T02:43:20.645Z,3.90
2023-05-10T02:44:20.703Z,3.86
2023-05-10T02:45:20.656Z,3.91
2023-05-10T02:46:20.764Z,3.89
2023-05-10T02:47:20.714Z,3.86
2023-05-10T02:48:20.749Z,3.90
2023-05-10T02:49:20.700Z,3.90
2023-05-10T02:50:20.701Z,3.89
2023-05-10T02:51:20.701Z,3.86
2023-05-10T02:52:20.720Z,3.91
2023-05-10T02:53:20.711Z,3.89
2023-05-10T02:54:20.700Z,3.87
2023-05-10T02:55:20.712Z,3.89
2023-05-10T02:56:20.681Z,3.88
2023-05-10T02:57:20.707Z,3.91
2023-05-10T02:58:20.698Z,3.91
2023-05-10T02:59:20.722Z,3.82
2023-05-10T03:00:20.720Z,3.91
2023-05-10T03:01:20.772Z,3.81
2023-05-10T03:02:20.734Z,3.82
2023-05-10T03:03:20.731Z,3.89
2023-05-10T03:04:20.709Z,3.89
2023-05-10T03:05:20.742Z,3.85
2023-05-10T03:06:20.722Z,3.76
2023-05-10T03:07:20.715Z,3.85
2023-05-10T03:08:20.740Z,3.85
2023-05-10T03:09:20.709Z,3.89
2023-05-10T03:10:20.714Z,3.82
2023-05-10T03:11:20.726Z,3.88
2023-05-10T03:12:20.735Z,3.79
2023-05-10T03:13:20.795Z,3.79
2023-05-10T03:14:20.731Z,3.92
2023-05-10T03:15:20.756Z,3.88
2023-05-10T03:16:20.750Z,3.85
2023-05-10T03:17:20.740Z,3.89
2023-05-10T03:18:20.740Z,3.88
2023-05-10T03:19:20.727Z,3.87
2023-05-10T03:20:20.730Z,3.83
2023-05-10T03:21:20.753Z,3.74
2023-05-10T03:22:20.708Z,3.86
2023-05-10T03:23:20.711Z,3.82
2023-05-10T03:24:20.702Z,3.88
2023-05-10T03:25:20.752Z,3.91
2023-05-10T03:26:20.713Z,3.86
2023-05-10T03:27:20.738Z,3.85
2023-05-10T03:28:20.745Z,3.80
2023-05-10T03:29:20.718Z,3.88
2023-05-10T03:30:20.762Z,3.91
2023-05-10T03:31:20.743Z,3.85
2023-05-10T03:32:20.776Z,3.85
2023-05-10T03:33:20.745Z,3.91
2023-05-10T03:34:20.703Z,3.82
2023-05-10T03:35:20.773Z,3.92
2023-05-10T03:36:20.741Z,3.85
2023-05-10T03:37:20.766Z,3.92
2023-05-10T03:38:20.758Z,3.84
2023-05-10T03:39:20.730Z,3.85
2023-05-10T03:40:20.741Z,3.83
2023-05-10T03:41:20.727Z,3.80
2023-05-10T03:42:20.747Z,3.82
2023-05-10T03:43:20.736Z,3.81
2023-05-10T03:44:20.706Z,3.92
2023-05-10T03:45:20.704Z,3.91
2023-05-10T03:46:20.743Z,3.91
2023-05-10T03:47:20.748Z,3.85
2023-05-10T03:48:20.711Z,3.79
2023-05-10T03:49:20.706Z,3.81
2023-05-10T03:50:20.695Z,3.77
2023-05-10T03:51:20.709Z,3.89
2023-05-10T03:52:20.715Z,3.96
2023-05-10T03:53:20.707Z,3.85
2023-05-10T03:54:20.710Z,3.92
2023-05-10T03:55:20.725Z,3.77
2023-05-10T03:56:20.689Z,3.75
2023-05-10T03:57:20.687Z,3.78
2023-05-10T03:58:20.688Z,3.68
2023-05-10T03:59:20.701Z,3.78
2023-05-10T04:00:20.686Z,3.81
2023-05-10T04:01:20.717Z,3.81
2023-05-10T04:02:20.807Z,3.78
2023-05-10T04:03:20.801Z,3.75
2023-05-10T04:04:20.749Z,3.68
2023-05-10T04:05:20.680Z,3.71
2023-05-10T04:06:20.767Z,3.79
2023-05-10T04:07:20.678Z,3.75
2023-05-10T04:08:20.673Z,3.83
2023-05-10T04:09:20.669Z,3.73
2023-05-10T04:10:20.665Z,3.78
2023-05-10T04:11:20.652Z,3.75
2023-05-10T04:12:20.659Z,3.83
2023-05-10T04:13:20.791Z,3.79
2023-05-10T04:14:20.665Z,3.79
2023-05-10T04:15:20.662Z,3.79
2023-05-10T04:16:20.700Z,3.74
2023-05-10T04:17:20.693Z,3.84
2023-05-10T04:18:20.627Z,3.82
2023-05-10T04:19:20.621Z,3.67
2023-05-10T04:20:20.651Z,3.76
2023-05-10T04:21:20.642Z,3.72
2023-05-10T04:22:20.636Z,3.75
2023-05-10T04:23:20.670Z,3.72
2023-05-10T04:24:20.608Z,3.72
2023-05-10T04:25:20.676Z,3.80
2023-05-10T04:26:20.640Z,3.78
2023-05-10T04:27:20.623Z,3.59
2023-05-10T04:28:20.616Z,3.76
2023-05-10T04:29:20.623Z,3.67
2023-05-10T04:30:20.645Z,3.79
2023-05-10T04:31:20.727Z,3.87
2023-05-10T04:32:20.639Z,3.77
2023-05-10T04:33:20.646Z,3.78
2023-05-10T04:34:20.621Z,3.74
2023-05-10T04:35:20.645Z,3.81
2023-05-10T04:36:20.657Z,3.75
2023-05-10T04:37:20.606Z,3.81
2023-05-10T04:38:20.631Z,3.72
2023-05-10T04:39:20.630Z,3.68
2023-05-10T04:40:20.596Z,3.71
2023-05-10T04:41:20.586Z,3.68
2023-05-10T04:42:20.603Z,3.86
2023-05-10T04:43:20.660Z,3.71
2023-05-10T04:44:20.589Z,3.68
2023-05-10T04:45:20.595Z,3.75
2023-05-10T04:46:20.659Z,3.69
2023-05-10T04:47:20.642Z,3.64
2023-05-10T04:48:20.587Z,3.72
2023-05-10T04:49:20.602Z,3.66
2023-05-10T04:50:20.600Z,3.73
2023-05-10T04:51:20.587Z,3.78
2023-05-10T04:52:20.584Z,3.69
2023-05-10T04:53:20.592Z,3.74
2023-05-10T04:54:20.596Z,3.68
2023-05-10T04:55:20.734Z,3.68
2023-05-10T04:56:20.619Z,3.68
2023-05-10T04:57:20.609Z,3.72
2023-05-10T04:58:20.624Z,3.67
2023-05-10T04:59:20.620Z,3.69
2023-05-10T05:00:20.604Z,3.72
2023-05-10T05:01:20.640Z,3.68
2023-05-10T05:02:20.642Z,3.63
2023-05-10T05:03:20.754Z,3.60
2023-05-10T05:04:20.587Z,3.73
2023-05-10T05:05:20.595Z,3.64
2023-05-10T05:06:20.644Z,3.64
2023-05-10T05:07:20.588Z,3.63
2023-05-10T05:08:20.659Z,3.62
2023-05-10T05:09:20.608Z,3.66
2023-05-10T05:10:20.670Z,3.67
2023-05-10T05:11:20.598Z,3.60
2023-05-10T05:12:20.592Z,3.68
2023-05-10T05:13:20.654Z,3.62
2023-05-10T05:14:20.610Z,3.64
2023-05-10T05:15:20.605Z,3.65
2023-05-10T05:16:20.669Z,3.63
2023-05-10T05:17:20.616Z,3.61
2023-05-10T05:18:20.628Z,3.62
2023-05-10T05:19:20.624Z,3.67
2023-05-10T05:20:20.656Z,3.62
2023-05-10T05:21:20.599Z,3.68
2023-05-10T05:22:20.614Z,3.68
2023-05-10T05:23:20.583Z,3.68
2023-05-10T05:24:20.608Z,3.59
2023-05-10T05:25:20.624Z,3.63
2023-05-10T05:26:20.591Z,3.65
2023-05-10T05:27:20.576Z,3.57
2023-05-10T05:28:20.598Z,3.59
2023-05-10T05:29:20.610Z,3.62
2023-05-10T05:30:20.561Z,3.57
2023-05-10T05:31:20.613Z,3.60
2023-05-10T05:32:20.570Z,3.59
2023-05-10T05:33:20.554Z,3.63
2023-05-10T05:34:20.774Z,3.86
2023-05-10T05:35:20.582Z,3.78
2023-05-10T05:36:21.264Z,4.20
2023-05-10T05:37:20.585Z,4.48
2023-05-10T05:38:20.602Z,4.70
2023-05-10T05:39:20.729Z,5.61
2023-05-10T05:40:20.661Z,6.65
2023-05-10T05:41:20.685Z,6.98
2023-05-10T05:42:20.682Z,6.68
2023-05-10T05:43:20.727Z,6.08
2023-05-10T05:44:20.750Z,6.50
2023-05-10T05:45:20.786Z,6.80
2023-05-10T05:46:27.846Z,5.97
2023-05-10T05:47:20.759Z,6.00
2023-05-10T05:48:20.749Z,6.11
2023-05-10T05:49:20.892Z,6.17
2023-05-10T05:50:20.744Z,6.76
2023-05-10T05:51:20.774Z,7.08
2023-05-10T05:52:20.737Z,6.27
2023-05-10T05:53:20.746Z,7.43
2023-05-10T05:54:20.804Z,7.67
2023-05-10T05:55:20.774Z,6.45
2023-05-10T05:56:20.729Z,6.04
2023-05-10T05:57:20.729Z,6.16
2023-05-10T05:58:20.736Z,5.83
2023-05-10T05:59:20.785Z,5.49
2023-05-10T06:00:20.705Z,5.84
2023-05-10T06:01:20.654Z,5.46
2023-05-10T06:02:20.744Z,5.48
2023-05-10T06:03:20.989Z,5.23
2023-05-10T06:04:20.713Z,5.19
2023-05-10T06:05:20.660Z,4.84
2023-05-10T06:06:20.708Z,4.61
2023-05-10T06:07:20.655Z,4.95
2023-05-10T06:08:20.637Z,4.81
2023-05-10T06:09:20.798Z,4.72
2023-05-10T06:10:20.624Z,4.62
2023-05-10T06:11:20.618Z,4.31
2023-05-10T06:12:20.602Z,4.07
2023-05-10T06:13:20.651Z,4.17
2023-05-10T06:14:20.641Z,4.07
2023-05-10T06:15:20.599Z,3.85
2023-05-10T06:16:20.581Z,3.99
2023-05-10T06:17:20.619Z,3.69
2023-05-10T06:18:20.612Z,3.83
2023-05-10T06:19:20.567Z,3.79
2023-05-10T06:20:20.585Z,3.57
2023-05-10T06:21:20.537Z,3.54
2023-05-10T06:22:20.543Z,3.45
2023-05-10T06:23:20.508Z,3.45
2023-05-10T06:24:20.566Z,3.38
2023-05-10T06:25:20.564Z,3.47
2023-05-10T06:26:20.524Z,3.40
2023-05-10T06:27:20.517Z,3.27
2023-05-10T06:28:20.525Z,3.40
2023-05-10T06:29:20.534Z,3.23
2023-05-10T06:30:20.611Z,3.15
2023-05-10T06:31:20.726Z,3.23
2023-05-10T06:32:20.661Z,3.32
2023-05-10T06:33:20.679Z,3.03
2023-05-10T06:34:20.735Z,3.10
2023-05-10T06:35:20.740Z,3.20
2023-05-10T06:36:20.736Z,3.15
2023-05-10T06:37:20.797Z,2.99
2023-05-10T06:38:20.859Z,2.92
2023-05-10T06:39:20.869Z,2.79
2023-05-10T06:40:20.906Z,2.82
2023-05-10T06:41:22.529Z,2.76
2023-05-10T06:42:20.936Z,2.69
2023-05-10T06:43:20.893Z,2.65
2023-05-10T06:44:20.897Z,2.62
2023-05-10T06:45:21.113Z,2.62
2023-05-10T06:46:20.953Z,2.61
2023-05-10T06:47:20.884Z,2.55
2023-05-10T06:48:20.920Z,2.54
2023-05-10T06:49:20.873Z,2.56
2023-05-10T06:50:20.865Z,2.52
2023-05-10T06:51:20.846Z,2.50
2023-05-10T06:52:20.856Z,2.60
2023-05-10T06:53:20.860Z,2.56
2023-05-10T06:54:20.862Z,2.57
2023-05-10T06:55:20.827Z,2.49
2023-05-10T06:56:20.826Z,2.60
2023-05-10T06:57:31.128Z,2.62
2023-05-10T06:58:21.812Z,2.63
2023-05-10T06:59:21.406Z,2.62
2023-05-10T07:00:21.199Z,2.62
2023-05-10T07:01:20.857Z,2.59
2023-05-10T07:02:21.060Z,2.50
2023-05-10T07:03:20.795Z,2.35
2023-05-10T07:04:20.789Z,2.22
2023-05-10T07:05:21.142Z,2.31
2023-05-10T07:06:32.278Z,2.34
2023-05-10T07:07:21.771Z,2.34
2023-05-10T07:08:20.757Z,2.30
2023-05-10T07:09:20.703Z,2.29
2023-05-10T07:10:20.790Z,2.22
2023-05-10T07:11:20.727Z,2.16
2023-05-10T07:12:20.767Z,2.11
2023-05-10T07:13:20.794Z,2.01
2023-05-10T07:14:20.743Z,2.00
2023-05-10T07:15:20.704Z,2.03
2023-05-10T07:16:20.790Z,2.03
2023-05-10T07:17:20.685Z,2.03
2023-05-10T07:18:20.674Z,2.07
2023-05-10T07:19:20.758Z,2.03
2023-05-10T07:20:20.823Z,1.99
2023-05-10T07:21:20.682Z,1.98
2023-05-10T07:22:21.386Z,2.03
2023-05-10T07:23:20.690Z,1.95
2023-05-10T07:24:20.751Z,1.93
2023-05-10T07:25:20.786Z,1.99
2023-05-10T07:26:20.790Z,1.90
2023-05-10T07:27:20.831Z,1.83
2023-05-10T07:28:20.893Z,1.75
2023-05-10T07:29:20.909Z,1.60
2023-05-10T07:30:21.336Z,1.72
2023-05-10T07:31:21.010Z,1.60
2023-05-10T07:32:21.851Z,1.63
2023-05-10T07:33:21.050Z,1.68
2023-05-10T07:34:21.043Z,1.61
2023-05-10T07:35:21.324Z,1.53
2023-05-10T07:36:21.098Z,1.56
2023-05-10T07:37:21.147Z,1.57
2023-05-10T07:38:21.162Z,1.50
2023-05-10T07:39:26.685Z,1.40
2023-05-10T07:40:22.229Z,1.40
2023-05-10T07:41:21.203Z,1.40
2023-05-10T07:42:21.181Z,1.34
2023-05-10T07:43:21.185Z,1.31
2023-05-10T07:44:21.196Z,1.43
2023-05-10T07:45:21.169Z,1.41
2023-05-10T07:46:21.180Z,1.58
2023-05-10T07:47:21.188Z,1.59
2023-05-10T07:48:21.140Z,1.64
2023-05-10T07:49:21.171Z,1.77
2023-05-10T07:50:21.165Z,1.74
2023-05-10T07:51:21.147Z,1.79
2023-05-10T07:52:22.652Z,1.80
2023-05-10T07:53:21.083Z,1.78
2023-05-10T07:54:21.093Z,1.82
2023-05-10T07:55:21.116Z,1.72
2023-05-10T07:56:21.182Z,1.67
2023-05-10T07:57:21.180Z,1.72
2023-05-10T07:58:21.231Z,1.83
2023-05-10T07:59:21.248Z,1.74
2023-05-10T08:00:21.370Z,1.60
2023-05-10T08:01:21.288Z,1.58
2023-05-10T08:02:21.395Z,1.57
2023-05-10T08:03:21.452Z,1.38
2023-05-10T08:04:21.380Z,1.25
2023-05-10T08:05:21.443Z,1.09
2023-05-10T08:06:21.527Z,1.20
2023-05-10T08:07:21.493Z,1.03
2023-05-10T08:08:21.558Z,1.04
2023-05-10T08:09:21.559Z,0.96
2023-05-10T08:10:21.665Z,0.95
2023-05-10T08:11:21.614Z,0.97
2023-05-10T08:12:21.627Z,0.93
2023-05-10T08:13:21.701Z,0.81
2023-05-10T08:14:21.702Z,0.84
2023-05-10T08:15:21.746Z,0.82
2023-05-10T08:16:21.783Z,0.79
2023-05-10T08:17:22.833Z,0.77
2023-05-10T08:18:22.208Z,0.82
2023-05-10T08:19:21.781Z,0.77
2023-05-10T08:20:21.952Z,0.77
2023-05-10T08:21:21.760Z,0.84
2023-05-10T08:22:21.755Z,0.88
2023-05-10T08:23:21.752Z,0.93
2023-05-10T08:24:21.767Z,0.96
2023-05-10T08:25:21.746Z,1.02
2023-05-10T08:26:21.748Z,1.05
2023-05-10T08:27:21.789Z,0.92
2023-05-10T08:28:21.730Z,0.76
2023-05-10T08:29:21.721Z,0.82
2023-05-10T08:30:22.037Z,0.89
2023-05-10T08:31:21.747Z,0.97
2023-05-10T08:32:21.729Z,1.09
2023-05-10T08:33:21.732Z,1.54
2023-05-10T08:34:21.783Z,1.28
2023-05-10T08:35:21.817Z,1.42
2023-05-10T08:36:21.657Z,1.77
2023-05-10T08:37:21.674Z,2.10
2023-05-10T08:38:21.655Z,3.23
2023-05-10T08:39:29.792Z,3.71
2023-05-10T08:40:22.973Z,3.75
2023-05-10T08:41:21.693Z,4.01
2023-05-10T08:42:21.737Z,4.72
2023-05-10T08:43:21.645Z,6.47
2023-05-10T08:44:21.610Z,10.79
2023-05-10T08:45:21.865Z,12.90
2023-05-10T08:46:21.799Z,11.94
2023-05-10T08:47:21.763Z,10.08
2023-05-10T08:48:21.686Z,10.48
2023-05-10T08:49:21.596Z,9.36
2023-05-10T08:50:21.625Z,8.91
2023-05-10T08:51:21.609Z,8.21
2023-05-10T08:52:21.648Z,7.23
2023-05-10T08:53:21.721Z,9.50
2023-05-10T08:54:21.824Z,8.91
2023-05-10T08:55:21.850Z,8.87
2023-05-10T08:56:21.843Z,10.09
2023-05-10T08:57:21.853Z,11.59
2023-05-10T08:58:21.906Z,12.53
2023-05-10T08:59:21.948Z,12.93
2023-05-10T09:00:21.925Z,13.24
2023-05-10T09:01:22.039Z,13.71
2023-05-10T09:02:21.965Z,13.76
2023-05-10T09:03:21.993Z,13.15
2023-05-10T09:04:22.213Z,13.14
2023-05-10T09:05:22.076Z,13.07
2023-05-10T09:06:22.378Z,11.41
2023-05-10T09:07:22.151Z,11.62
2023-05-10T09:08:22.192Z,12.35
2023-05-10T09:09:22.180Z,12.57
2023-05-10T09:10:22.246Z,12.74
2023-05-10T09:11:22.245Z,12.99
2023-05-10T09:12:22.292Z,13.38
2023-05-10T09:13:22.336Z,11.52
2023-05-10T09:14:22.290Z,12.92
2023-05-10T09:15:22.289Z,13.53
2023-05-10T09:16:22.687Z,13.75
2023-05-10T09:17:22.497Z,14.70
2023-05-10T09:18:22.411Z,13.95
2023-05-10T09:19:22.355Z,14.00
2023-05-10T09:20:22.424Z,13.51
2023-05-10T09:21:22.386Z,14.10
2023-05-10T09:22:22.358Z,13.97
2023-05-10T09:23:22.787Z,13.95
2023-05-10T09:24:22.357Z,14.60
2023-05-10T09:25:22.412Z,14.37
2023-05-10T09:26:22.899Z,14.58
2023-05-10T09:27:22.380Z,14.78
2023-05-10T09:28:22.392Z,14.76
2023-05-10T09:29:22.384Z,14.68
2023-05-10T09:30:22.401Z,14.52
2023-05-10T09:31:23.680Z,15.04
2023-05-10T09:32:22.465Z,15.09
2023-05-10T09:33:22.413Z,15.56
2023-05-10T09:34:22.429Z,15.20
2023-05-10T09:35:22.426Z,15.38
2023-05-10T09:36:22.393Z,14.31
2023-05-10T09:37:22.445Z,14.05
2023-05-10T09:38:22.432Z,14.19
2023-05-10T09:39:22.384Z,13.91
2023-05-10T09:40:22.396Z,14.07
2023-05-10T09:41:22.917Z,14.48
2023-05-10T09:42:22.393Z,14.38
2023-05-10T09:43:22.411Z,14.34
2023-05-10T09:44:22.440Z,14.48
2023-05-10T09:45:22.443Z,14.43
2023-05-10T09:46:22.484Z,14.54
2023-05-10T09:47:22.454Z,13.73
2023-05-10T09:48:22.433Z,14.36
2023-05-10T09:49:22.461Z,14.35
2023-05-10T09:50:22.455Z,14.53
2023-05-10T09:51:22.898Z,14.34
2023-05-10T09:52:22.505Z,14.40
2023-05-10T09:53:22.491Z,12.79
2023-05-10T09:54:22.549Z,11.83
2023-05-10T09:55:22.639Z,12.30
2023-05-10T09:56:22.909Z,10.15
2023-05-10T09:57:22.543Z,8.18
2023-05-10T09:58:22.539Z,5.83
2023-05-10T09:59:22.530Z,4.29
2023-05-10T10:00:22.555Z,4.49
2023-05-10T10:01:22.606Z,4.39
2023-05-10T10:02:22.600Z,4.18
2023-05-10T10:03:22.592Z,4.31
2023-05-10T10:04:22.693Z,4.21
2023-05-10T10:05:22.649Z,3.68
2023-05-10T10:06:29.587Z,3.56
2023-05-10T10:07:23.680Z,3.12
2023-05-10T10:08:22.661Z,3.34
2023-05-10T10:09:22.707Z,3.17
2023-05-10T10:10:22.623Z,3.24
2023-05-10T10:11:22.888Z,3.46
2023-05-10T10:12:22.614Z,3.25
2023-05-10T10:13:22.612Z,3.80
2023-05-10T10:14:22.595Z,3.56
2023-05-10T10:15:22.983Z,4.15
2023-05-10T10:16:23.034Z,4.19
2023-05-10T10:17:22.586Z,3.55
2023-05-10T10:18:22.610Z,3.49
2023-05-10T10:19:22.590Z,3.26
2023-05-10T10:20:22.547Z,3.24
2023-05-10T10:21:22.568Z,3.49
2023-05-10T10:22:22.542Z,2.97
2023-05-10T10:23:22.547Z,2.75
2023-05-10T10:24:22.525Z,2.75
2023-05-10T10:25:22.537Z,2.80
2023-05-10T10:26:22.910Z,3.01
2023-05-10T10:27:22.506Z,2.91
2023-05-10T10:28:22.515Z,3.12
2023-05-10T10:29:22.528Z,3.09
2023-05-10T10:30:22.485Z,3.06
2023-05-10T10:31:22.564Z,2.69
2023-05-10T10:32:22.561Z,2.59
2023-05-10T10:33:28.432Z,2.63
2023-05-10T10:34:23.509Z,2.64
2023-05-10T10:35:22.502Z,2.65
2023-05-10T10:36:23.014Z,2.83
2023-05-10T10:37:22.541Z,2.92
2023-05-10T10:38:22.482Z,2.66
2023-05-10T10:39:22.496Z,2.64
2023-05-10T10:40:22.491Z,2.82
2023-05-10T10:41:22.910Z,2.73
2023-05-10T10:42:22.433Z,2.70
2023-05-10T10:43:22.451Z,2.76
2023-05-10T10:44:22.423Z,2.44
2023-05-10T10:45:22.424Z,2.17
2023-05-10T10:46:22.503Z,2.15
2023-05-10T10:47:22.566Z,2.08
2023-05-10T10:48:23.488Z,2.09
2023-05-10T10:49:22.437Z,2.10
2023-05-10T10:50:22.954Z,2.07
2023-05-10T10:51:22.396Z,1.48
2023-05-10T10:52:22.501Z,1.47
2023-05-10T10:53:22.401Z,1.46
2023-05-10T10:54:22.354Z,1.15
2023-05-10T10:55:22.361Z,1.23
2023-05-10T10:56:22.395Z,1.40
2023-05-10T10:57:22.450Z,1.59
2023-05-10T10:58:22.384Z,1.70
2023-05-10T10:59:22.339Z,1.66
2023-05-10T11:00:22.349Z,1.53
2023-05-10T11:01:22.471Z,1.53
2023-05-10T11:02:22.357Z,1.63
2023-05-10T11:03:22.350Z,2.61
2023-05-10T11:04:22.421Z,1.82
2023-05-10T11:05:22.413Z,1.77
2023-05-10T11:06:22.426Z,1.83
2023-05-10T11:07:22.998Z,1.73
2023-05-10T11:08:22.519Z,1.83
2023-05-10T11:09:22.528Z,1.84
2023-05-10T11:10:22.599Z,1.76
2023-05-10T11:11:22.585Z,1.77
2023-05-10T11:12:22.618Z,1.67
2023-05-10T11:13:22.663Z,1.64
2023-05-10T11:14:22.727Z,1.18
2023-05-10T11:15:22.749Z,1.32
2023-05-10T11:16:22.855Z,1.21
2023-05-10T11:17:22.786Z,1.07
2023-05-10T11:18:22.897Z,1.03
2023-05-10T11:19:22.882Z,0.87
2023-05-10T11:20:22.930Z,0.84
2023-05-10T11:21:22.945Z,0.83
2023-05-10T11:22:23.002Z,0.75
2023-05-10T11:23:23.087Z,0.90
2023-05-10T11:24:23.043Z,0.82
2023-05-10T11:25:23.941Z,0.78
2023-05-10T11:26:23.147Z,0.86
2023-05-10T11:27:23.452Z,1.03
2023-05-10T11:28:23.234Z,1.12
2023-05-10T11:29:23.174Z,1.20
2023-05-10T11:30:23.261Z,1.05
2023-05-10T11:31:23.318Z,1.28
2023-05-10T11:32:23.945Z,1.71
2023-05-10T11:33:23.310Z,2.42
2023-05-10T11:34:23.344Z,2.51
2023-05-10T11:35:23.400Z,2.26
2023-05-10T11:36:23.426Z,2.35
2023-05-10T11:37:23.946Z,2.73
2023-05-10T11:38:23.518Z,2.91
2023-05-10T11:39:23.570Z,3.02
2023-05-10T11:40:23.533Z,3.25
2023-05-10T11:41:23.591Z,3.39
2023-05-10T11:42:23.612Z,3.45
2023-05-10T11:43:23.606Z,3.60
2023-05-10T11:44:23.664Z,3.61
2023-05-10T11:45:23.662Z,3.73
2023-05-10T11:46:23.701Z,3.87
2023-05-10T11:47:23.725Z,3.91
2023-05-10T11:48:23.728Z,3.96
2023-05-10T11:49:23.753Z,3.95
2023-05-10T11:50:23.713Z,3.82
2023-05-10T11:51:23.772Z,3.97
2023-05-10T11:52:23.763Z,4.21
2023-05-10T11:53:25.777Z,4.27
2023-05-10T11:54:23.780Z,4.17
2023-05-10T11:55:23.779Z,4.30
2023-05-10T11:56:23.793Z,4.27
2023-05-10T11:57:23.858Z,4.38
2023-05-10T11:58:23.866Z,4.49
2023-05-10T11:59:23.844Z,4.58
2023-05-10T12:00:23.868Z,4.63
2023-05-10T12:01:23.828Z,4.58
2023-05-10T12:02:23.998Z,4.59
2023-05-10T12:03:24.011Z,4.60
2023-05-10T12:04:23.925Z,4.80
2023-05-10T12:05:23.914Z,4.87
2023-05-10T12:06:23.916Z,4.82
2023-05-10T12:07:23.958Z,5.00
2023-05-10T12:08:23.968Z,4.93
2023-05-10T12:10:23.947Z,5.00
2023-05-10T12:11:23.975Z,5.01
2023-05-10T12:12:23.975Z,5.00
2023-05-10T12:13:23.980Z,5.01
2023-05-10T12:14:23.929Z,5.30
2023-05-10T12:15:23.928Z,5.09
2023-05-10T12:16:23.930Z,5.21
2023-05-10T12:17:23.976Z,5.07
2023-05-10T12:18:23.930Z,5.06
2023-05-10T12:19:23.874Z,5.12
2023-05-10T12:20:23.900Z,5.18
2023-05-10T12:21:23.866Z,5.20
2023-05-10T12:22:23.861Z,5.43
2023-05-10T12:23:23.877Z,5.28
2023-05-10T12:24:23.831Z,5.06
2023-05-10T12:25:23.839Z,5.15
2023-05-10T12:26:23.852Z,5.30
2023-05-10T12:27:23.830Z,5.29
2023-05-10T12:28:23.864Z,5.08
2023-05-10T12:29:23.814Z,5.07
2023-05-10T12:30:23.788Z,5.17
2023-05-10T12:31:23.819Z,4.94
2023-05-10T12:32:23.817Z,5.21
2023-05-10T12:33:23.808Z,5.35
2023-05-10T12:34:23.784Z,5.25
2023-05-10T12:35:23.784Z,5.23
2023-05-10T12:36:23.754Z,5.23
2023-05-10T12:37:23.781Z,5.09
2023-05-10T12:38:23.756Z,5.03
2023-05-10T12:39:23.727Z,5.12
2023-05-10T12:40:23.742Z,5.12
2023-05-10T12:41:23.778Z,5.23
2023-05-10T12:42:23.709Z,5.04
2023-05-10T12:43:23.723Z,5.17
2023-05-10T12:44:23.735Z,5.24
2023-05-10T12:45:23.737Z,5.27
2023-05-10T12:46:23.820Z,5.16
2023-05-10T12:47:23.720Z,5.28
2023-05-10T12:48:23.728Z,5.27
2023-05-10T12:49:23.717Z,5.34
2023-05-10T12:50:23.697Z,5.27
2023-05-10T12:51:23.683Z,5.48
2023-05-10T12:52:23.661Z,5.61
2023-05-10T12:53:23.666Z,5.56
2023-05-10T12:54:23.649Z,5.58
2023-05-10T12:55:23.653Z,6.40
2023-05-10T12:56:23.633Z,9.19
2023-05-10T12:57:23.682Z,11.40
2023-05-10T12:58:35.103Z,16.84
2023-05-10T12:59:24.660Z,16.98
2023-05-10T13:00:23.595Z,17.98
2023-05-10T13:01:23.703Z,22.46
2023-05-10T13:02:23.602Z,30.50
2023-05-10T13:03:23.612Z,45.54
2023-05-10T13:04:23.603Z,52.48
2023-05-10T13:05:23.601Z,57.04
2023-05-10T13:06:23.589Z,67.66
2023-05-10T13:07:23.550Z,64.42
2023-05-10T13:08:23.563Z,72.68
2023-05-10T13:09:23.559Z,71.44
2023-05-10T13:10:23.568Z,72.88
2023-05-10T13:11:23.518Z,75.33
2023-05-10T13:12:23.528Z,80.34
2023-05-10T13:13:23.538Z,79.68
2023-05-10T13:14:23.532Z,79.64
2023-05-10T13:15:23.498Z,81.34
2023-05-10T13:16:23.682Z,94.76
2023-05-10T13:17:23.492Z,104.38